Time;durP1;ratioP1;P1;durP2;ratioP2;P2;SDS_P1;SDS_P2;PMS_P1;PMS_P2;Temp;Humidity;BMP_temperature;BMP_pressure;BME280_temperature;BME280_humidity;BME280_pressure;Samples;Min_cycle;Max_cycle;Signal;HPM_P1;HPM_P2
2021/06/26 00:03:55;;;;;;;36.97;23.13;;;;;;;16.52;64.27;100722.25;10225433;29;20619;-75
2021/06/26 00:08:57;;;;;;;36.88;23.90;;;;;;;16.49;64.50;100729.84;10224833;28;20201;-75
2021/06/26 00:14:00;;;;;;;34.03;22.80;;;;;;;16.43;64.61;100731.31;10224166;29;20241;-75
2021/06/26 00:19:05;;;;;;;32.83;22.40;;;;;;;16.28;65.26;100733.69;10225095;28;20194;-75
2021/06/26 00:24:08;;;;;;;40.40;23.23;;;;;;;16.20;65.26;100730.00;10224426;28;20594;-75
2021/06/26 00:29:10;;;;;;;34.72;22.45;;;;;;;15.90;66.16;100738.31;10224900;29;20196;-75
2021/06/26 00:34:15;;;;;;;34.42;23.30;;;;;;;15.84;66.52;100730.78;10223969;28;20225;-75
2021/06/26 00:39:18;;;;;;;32.55;21.73;;;;;;;15.83;66.55;100733.66;10224478;28;20197;-75
2021/06/26 00:44:21;;;;;;;31.33;20.02;;;;;;;15.74;66.88;100726.41;10223720;28;20602;-75
2021/06/26 00:49:25;;;;;;;36.88;22.02;;;;;;;15.60;67.37;100731.31;10223773;28;20248;-75
2021/06/26 00:54:28;;;;;;;38.55;23.25;;;;;;;15.29;68.55;100738.81;10223336;28;20221;-75
2021/06/26 00:59:32;;;;;;;32.38;21.63;;;;;;;15.24;68.20;100736.53;10224254;28;20199;-75
2021/06/26 01:04:36;;;;;;;33.90;22.50;;;;;;;15.15;68.60;100742.81;10224004;28;20220;-75
2021/06/26 01:09:39;;;;;;;33.70;22.17;;;;;;;15.21;68.68;100730.56;10230787;28;20194;-75
2021/06/26 01:14:42;;;;;;;35.95;22.20;;;;;;;15.25;68.71;100735.56;10230450;28;20233;-75
2021/06/26 01:19:46;;;;;;;33.53;22.05;;;;;;;15.18;68.56;100728.16;10230639;28;20190;-75
2021/06/26 01:24:51;;;;;;;33.63;21.35;;;;;;;15.22;68.98;100743.09;10228681;29;20232;-75
2021/06/26 01:29:55;;;;;;;35.63;21.92;;;;;;;15.18;68.82;100737.13;10230296;28;20193;-75
2021/06/26 01:34:58;;;;;;;37.13;22.60;;;;;;;15.11;69.13;100738.72;10229623;28;20227;-75
2021/06/26 01:40:02;;;;;;;32.05;21.80;;;;;;;15.13;69.22;100735.84;10228599;29;20769;-75
2021/06/26 01:51:58;;;;;;;37.20;23.55;;;;;;;14.91;70.46;100737.88;10229734;29;20197;-75
2021/06/26 01:57:02;;;;;;;37.88;23.15;;;;;;;14.94;69.72;100739.44;10229083;28;20249;-75
2021/06/26 02:02:05;;;;;;;37.90;22.65;;;;;;;15.00;69.90;100731.63;10229035;28;20194;-75
2021/06/26 02:07:08;;;;;;;35.20;23.13;;;;;;;15.04;69.75;100743.84;10228820;28;20726;-75
2021/06/26 02:12:13;;;;;;;43.38;25.48;;;;;;;15.13;70.04;100738.56;10229011;29;20580;-75
2021/06/26 02:17:16;;;;;;;37.92;25.05;;;;;;;15.17;69.62;100743.53;10225859;29;20225;-75
2021/06/26 02:22:19;;;;;;;41.17;25.13;;;;;;;15.18;69.55;100737.13;10228816;28;20224;-75
2021/06/26 02:27:23;;;;;;;40.33;24.67;;;;;;;15.13;69.32;100735.84;10228003;29;20213;-75
2021/06/26 02:32:26;;;;;;;40.83;26.95;;;;;;;15.15;68.98;100737.41;10228342;29;20305;-75
2021/06/26 02:37:29;;;;;;;40.95;25.50;;;;;;;15.19;68.87;100737.97;10227757;29;20222;-75
2021/06/26 02:42:33;;;;;;;37.03;24.23;;;;;;;15.27;68.35;100738.09;10227695;28;20216;-75
2021/06/26 02:47:36;;;;;;;36.50;23.65;;;;;;;15.09;68.90;100732.59;10327313;23;20251;-74
2021/06/26 02:52:39;;;;;;;38.85;23.13;;;;;;;14.82;69.65;100733.34;10309292;28;20575;-73
2021/06/26 02:57:44;;;;;;;39.50;24.95;;;;;;;14.59;70.33;100738.19;10341423;28;20219;-74
2021/06/26 03:02:46;;;;;;;38.80;24.17;;;;;;;14.43;71.21;100733.34;10349394;28;20210;-73
2021/06/26 03:07:50;;;;;;;39.35;25.13;;;;;;;14.60;70.96;100740.75;10348911;28;20223;-73
2021/06/26 03:12:54;;;;;;;43.33;24.63;;;;;;;14.69;70.64;100728.22;10348986;28;20222;-74
2021/06/26 03:17:57;;;;;;;41.17;24.88;;;;;;;14.75;70.08;100734.91;10348943;28;20223;-74
2021/06/26 03:23:00;;;;;;;40.80;25.70;;;;;;;14.77;70.18;100741.88;10348588;28;20614;-73
2021/06/26 03:28:04;;;;;;;40.83;23.77;;;;;;;14.77;70.07;100741.88;10348125;28;20230;-73
2021/06/26 03:33:07;;;;;;;36.08;23.77;;;;;;;14.84;69.79;100750.28;10348404;28;20210;-74
2021/06/26 03:38:10;;;;;;;37.97;23.30;;;;;;;14.74;69.89;100750.28;10347804;28;20220;-73
2021/06/26 03:43:14;;;;;;;39.65;23.63;;;;;;;14.73;69.94;100747.72;10348091;28;20202;-73
2021/06/26 03:48:17;;;;;;;37.33;22.52;;;;;;;14.72;70.05;100754.97;10347214;28;20743;-73
2021/06/26 03:53:20;;;;;;;40.33;24.30;;;;;;;14.66;69.91;100758.25;10347914;28;20840;-73
2021/06/26 03:58:26;;;;;;;42.10;24.33;;;;;;;14.62;70.39;100764.94;10347039;28;20733;-73
2021/06/26 04:03:28;;;;;;;40.90;25.83;;;;;;;14.65;70.34;100766.50;10347134;28;20222;-73
2021/06/26 04:08:31;;;;;;;39.30;23.95;;;;;;;14.67;70.32;100759.09;10347020;28;20211;-74
2021/06/26 04:13:35;;;;;;;36.42;24.25;;;;;;;14.72;70.09;100779.28;10347021;28;20219;-73
2021/06/26 04:18:38;;;;;;;41.70;25.48;;;;;;;14.73;70.01;100777.47;10346547;28;20226;-74
2021/06/26 04:23:41;;;;;;;41.30;24.92;;;;;;;14.75;70.27;100776.31;10347072;28;20187;-73
2021/06/26 04:28:46;;;;;;;39.00;24.05;;;;;;;14.87;69.78;100771.63;10346357;28;20187;-72
2021/06/26 04:33:48;;;;;;;37.22;23.67;;;;;;;14.93;69.42;100765.63;10346385;28;20242;-73
2021/06/26 04:38:51;;;;;;;35.00;23.65;;;;;;;15.03;69.23;100773.75;10345615;28;20545;-74
2021/06/26 04:43:56;;;;;;;37.00;22.75;;;;;;;15.11;68.67;100773.00;10345831;28;20190;-73
2021/06/26 04:48:59;;;;;;;35.38;23.02;;;;;;;15.18;68.75;100776.88;10346212;28;20199;-73
2021/06/26 04:54:02;;;;;;;37.67;23.63;;;;;;;15.22;68.64;100778.25;10345730;28;20389;-72
2021/06/26 04:59:06;;;;;;;39.78;23.88;;;;;;;15.31;68.63;100788.25;10345856;28;20300;-74
2021/06/26 05:04:09;;;;;;;37.25;22.58;;;;;;;15.44;68.29;100780.69;10344863;28;20318;-72
2021/06/26 05:09:13;;;;;;;39.08;24.08;;;;;;;15.55;67.98;100786.91;10345380;28;20226;-72
2021/06/26 05:14:17;;;;;;;41.40;23.92;;;;;;;15.68;67.85;100787.44;10344843;28;20246;-75
2021/06/26 05:19:20;;;;;;;39.25;23.50;;;;;;;15.81;67.82;100790.69;10327998;28;20203;-73
2021/06/26 05:24:23;;;;;;;36.22;22.65;;;;;;;15.73;67.74;100789.72;10344689;28;20219;-74
2021/06/26 05:29:28;;;;;;;35.40;21.85;;;;;;;15.83;67.61;100801.38;10362232;28;20585;-75
2021/06/26 05:34:31;;;;;;;35.25;23.90;;;;;;;16.03;66.76;100805.69;10374834;28;20219;-75
2021/06/26 05:39:34;;;;;;;39.78;24.20;;;;;;;16.20;66.21;100800.47;10379613;28;20669;-74
2021/06/26 05:44:38;;;;;;;36.30;21.90;;;;;;;16.47;65.84;100805.06;10385359;28;20226;-75
2021/06/26 05:49:41;;;;;;;38.22;23.92;;;;;;;16.64;65.02;100801.50;10385817;28;20197;-75
2021/06/26 05:54:44;;;;;;;38.30;23.48;;;;;;;16.75;64.80;100811.28;10391583;28;20245;-75
2021/06/26 05:59:48;;;;;;;37.40;23.55;;;;;;;16.90;65.35;100798.03;10392729;28;20198;-75
2021/06/26 06:04:51;;;;;;;30.95;19.50;;;;;;;17.14;64.80;100797.41;10392161;28;20210;-75
2021/06/26 06:09:54;;;;;;;36.05;23.50;;;;;;;17.36;62.86;100794.22;10386948;28;20237;-74
2021/06/26 06:14:58;;;;;;;41.30;22.98;;;;;;;17.47;62.91;100798.53;10432525;28;20238;-74
2021/06/26 06:20:04;;;;;;;32.13;20.00;;;;;;;17.72;61.87;100785.06;10384542;28;20226;-75
2021/06/26 06:25:10;;;;;;;26.85;19.25;;;;;;;17.80;61.55;100799.59;10388547;28;20265;-75
2021/06/26 06:30:15;;;;;;;37.95;22.17;;;;;;;18.00;61.75;100800.22;10392113;28;20179;-76
2021/06/26 06:35:18;;;;;;;32.63;23.10;;;;;;;18.36;61.95;100808.16;10391302;28;20226;-75
2021/06/26 06:40:22;;;;;;;37.28;22.73;;;;;;;18.61;60.88;100806.34;10392253;28;20187;-75
2021/06/26 06:45:26;;;;;;;32.25;20.48;;;;;;;18.83;59.36;100806.78;10390436;28;20222;-74
2021/06/26 06:50:30;;;;;;;36.65;22.17;;;;;;;18.72;59.99;100808.75;10391085;28;20201;-74
2021/06/26 06:55:33;;;;;;;31.17;19.85;;;;;;;18.96;58.37;100812.56;10391572;28;20234;-74
2021/06/26 07:00:39;;;;;;;31.63;21.27;;;;;;;19.31;58.41;100824.13;10390546;28;20195;-74
2021/06/26 07:05:42;;;;;;;31.45;20.67;;;;;;;19.76;56.95;100814.56;10388926;28;20206;-75
2021/06/26 07:10:45;;;;;;;30.20;19.35;;;;;;;19.98;55.80;100822.00;10369764;28;20209;-74
2021/06/26 07:15:49;;;;;;;29.25;18.92;;;;;;;20.32;55.28;100821.75;10387718;28;20224;-74
2021/06/26 07:20:52;;;;;;;26.15;16.75;;;;;;;20.28;55.08;100830.41;10389677;28;20274;-74
2021/06/26 07:25:55;;;;;;;33.53;21.13;;;;;;;20.63;55.31;100820.88;10389424;28;20211;-75
2021/06/26 07:31:00;;;;;;;25.88;18.83;;;;;;;21.03;53.54;100824.34;10388874;28;20205;-75
2021/06/26 07:36:05;;;;;;;26.77;17.50;;;;;;;21.24;53.38;100823.72;10389043;28;20230;-75
2021/06/26 07:41:08;;;;;;;34.28;19.85;;;;;;;21.48;51.82;100825.38;10389396;28;20244;-75
2021/06/26 07:46:13;;;;;;;24.90;17.10;;;;;;;21.47;51.34;100822.81;10388515;28;20218;-75
2021/06/26 07:51:56;;;;;;;27.05;17.85;;;;;;;21.87;51.32;100816.97;10388962;28;20202;-73
2021/06/26 07:56:59;;;;;;;24.15;17.45;;;;;;;22.55;49.86;100803.13;10387709;28;20297;-75
2021/06/26 08:02:04;;;;;;;27.83;18.77;;;;;;;22.86;48.59;100802.81;10370807;28;20226;-75
2021/06/26 08:07:07;;;;;;;28.27;17.80;;;;;;;23.27;48.46;100812.31;10358621;28;20216;-75
2021/06/26 08:12:14;;;;;;;25.15;16.77;;;;;;;23.46;46.83;100808.88;10347896;28;20230;-75
2021/06/26 08:17:19;;;;;;;28.58;18.02;;;;;;;23.66;46.00;100803.53;10368982;28;20226;-75
2021/06/26 08:22:22;;;;;;;23.83;16.52;;;;;;;23.74;45.09;100806.09;10388232;28;20194;-73
2021/06/26 08:27:25;;;;;;;24.58;16.00;;;;;;;24.81;43.42;100804.72;10388155;28;20215;-72
2021/06/26 08:32:29;;;;;;;25.17;16.10;;;;;;;25.82;41.35;100798.22;10370232;28;20206;-75
2021/06/26 08:37:32;;;;;;;21.80;16.25;;;;;;;25.90;40.66;100789.72;10387263;28;20207;-74
2021/06/26 08:42:35;;;;;;;19.90;14.52;;;;;;;25.60;39.42;100797.59;10387706;28;20198;-75
2021/06/26 08:47:40;;;;;;;20.73;14.70;;;;;;;25.25;41.24;100788.72;10433736;23;20253;-75
2021/06/26 08:52:43;;;;;;;21.95;15.65;;;;;;;25.50;39.20;100788.91;10387401;28;20591;-73
2021/06/26 08:57:48;;;;;;;19.63;14.73;;;;;;;25.68;38.22;100777.31;10386451;28;20225;-74
2021/06/26 09:03:04;;;;;;;18.20;14.18;;;;;;;24.74;37.80;100770.91;10392882;28;20196;-74
2021/06/26 09:08:08;;;;;;;24.27;15.85;;;;;;;25.29;39.39;100777.09;10415058;28;20695;-75
2021/06/26 09:13:17;;;;;;;20.33;14.50;;;;;;;26.12;38.41;100779.28;10427820;28;20190;-74
2021/06/26 09:18:22;;;;;;;21.05;15.48;;;;;;;26.16;36.32;100775.00;10427046;28;20324;-74
2021/06/26 09:23:31;;;;;;;22.15;14.75;;;;;;;25.17;37.60;100782.38;10428109;28;20194;-74
2021/06/26 09:28:35;;;;;;;19.40;14.75;;;;;;;25.80;38.23;100775.56;10419330;28;20210;-75
2021/06/26 09:33:39;;;;;;;20.45;13.73;;;;;;;26.41;37.81;100777.91;10441840;28;20202;-76
2021/06/26 09:38:55;;;;;;;22.63;13.25;;;;;;;27.05;36.99;100775.19;10434310;28;20695;-74
2021/06/26 09:44:09;;;;;;;18.73;13.57;;;;;;;27.12;35.26;100775.97;10434254;28;20197;-72
2021/06/26 09:49:14;;;;;;;19.20;14.85;;;;;;;26.43;35.68;100785.94;10434836;28;20218;-74
2021/06/26 09:54:16;;;;;;;21.42;13.80;;;;;;;26.76;35.90;100776.63;10433387;28;20186;-74
2021/06/26 09:59:30;;;;;;;18.50;13.07;;;;;;;27.05;36.47;100777.94;10433574;28;20296;-76
2021/06/26 10:04:36;;;;;;;17.23;13.48;;;;;;;27.03;35.08;100767.13;10433389;28;20196;-77
2021/06/26 10:09:41;;;;;;;19.35;14.05;;;;;;;26.88;35.82;100761.13;10433771;28;20175;-76
2021/06/26 10:14:44;;;;;;;18.33;13.77;;;;;;;26.34;36.69;100768.00;10432523;28;20245;-75
2021/06/26 10:19:50;;;;;;;21.50;14.38;;;;;;;27.04;37.09;100766.09;10360499;28;20198;-74
2021/06/26 10:24:54;;;;;;;21.23;14.32;;;;;;;27.92;35.37;100758.63;10326960;28;20214;-76
2021/06/26 10:29:57;;;;;;;19.98;12.90;;;;;;;28.18;35.67;100760.28;10326303;28;20193;-75
2021/06/26 10:35:12;;;;;;;16.58;11.50;;;;;;;27.61;36.28;100769.59;10322408;28;20210;-75
2021/06/26 10:40:15;;;;;;;17.77;12.55;;;;;;;27.24;35.49;100760.38;10314881;28;20212;-76
2021/06/26 10:45:27;;;;;;;17.35;13.07;;;;;;;27.47;36.64;100765.28;10348118;28;20222;-74
2021/06/26 10:50:31;;;;;;;16.17;13.07;;;;;;;27.09;36.51;100757.13;10347261;28;20193;-76
2021/06/26 10:55:37;;;;;;;17.38;12.23;;;;;;;28.69;34.46;100762.56;10346805;28;20685;-74
2021/06/26 11:00:42;;;;;;;13.57;11.43;;;;;;;28.84;33.65;100764.88;10329528;28;20595;-76
2021/06/26 11:05:46;;;;;;;15.98;11.90;;;;;;;27.28;35.77;100758.84;10347266;28;20609;-74
2021/06/26 11:10:54;;;;;;;13.35;10.10;;;;;;;28.01;35.54;100752.63;10325746;28;20212;-76
2021/06/26 11:15:57;;;;;;;11.38;9.85;;;;;;;29.26;33.44;100741.88;10307831;28;20218;-73
2021/06/26 11:21:06;;;;;;;13.40;9.93;;;;;;;29.74;31.57;100743.56;10297147;28;20209;-74
2021/06/26 11:26:09;;;;;;;12.25;8.98;;;;;;;28.77;32.84;100746.69;10319838;28;20225;-74
2021/06/26 11:31:13;;;;;;;10.82;8.80;;;;;;;28.08;34.66;100744.25;10347761;28;20193;-76
2021/06/26 11:36:19;;;;;;;12.98;10.13;;;;;;;27.37;35.31;100748.38;10347343;28;20734;-74
2021/06/26 11:41:22;;;;;;;12.95;9.15;;;;;;;28.25;34.85;100739.78;10330250;28;20255;-75
2021/06/26 11:46:25;;;;;;;11.50;9.20;;;;;;;29.47;33.23;100743.19;10328049;28;20221;-76
2021/06/26 11:51:29;;;;;;;13.23;9.57;;;;;;;29.64;32.10;100729.50;10345127;28;20566;-74
2021/06/26 11:56:32;;;;;;;10.75;9.57;;;;;;;28.89;33.21;100737.34;10343525;28;20239;-76
2021/06/26 12:01:36;;;;;;;12.70;8.43;;;;;;;30.01;32.62;100735.56;10408245;28;20565;-75
2021/06/26 12:06:41;;;;;;;11.77;8.45;;;;;;;31.11;30.67;100739.84;10468961;28;20295;-75
2021/06/26 12:11:44;;;;;;;10.48;8.43;;;;;;;31.84;29.34;100737.06;10440400;28;20197;-75
2021/06/26 12:16:47;;;;;;;9.35;8.20;;;;;;;32.39;28.62;100740.78;10435987;28;20221;-75
2021/06/26 12:21:53;;;;;;;10.40;8.38;;;;;;;31.52;29.76;100732.16;10428376;28;20707;-74
2021/06/26 12:27:04;;;;;;;8.75;7.85;;;;;;;30.87;30.50;100732.78;10428364;28;20205;-74
2021/06/26 12:32:08;;;;;;;10.07;8.32;;;;;;;30.00;30.48;100728.31;10410796;28;20206;-74
2021/06/26 12:37:12;;;;;;;9.45;7.50;;;;;;;28.99;32.88;100727.63;10427718;28;20225;-74
2021/06/26 12:42:15;;;;;;;8.85;7.60;;;;;;;29.37;33.71;100729.97;10428320;28;20198;-74
2021/06/26 12:47:22;;;;;;;10.02;8.30;;;;;;;30.40;31.16;100720.00;10427596;28;20221;-74
2021/06/26 12:52:27;;;;;;;9.48;7.03;;;;;;;30.47;30.07;100733.69;10428419;28;20194;-73
2021/06/26 12:57:39;;;;;;;10.40;8.45;;;;;;;30.09;31.22;100726.00;10428006;28;20221;-75
2021/06/26 13:02:41;;;;;;;9.55;8.15;;;;;;;30.48;31.72;100718.75;10432311;28;20191;-74
2021/06/26 13:07:46;;;;;;;10.38;7.75;;;;;;;31.04;30.49;100714.19;10434597;28;20210;-74
2021/06/26 13:12:50;;;;;;;8.30;7.20;;;;;;;32.07;29.35;100715.69;10435555;28;20186;-73
2021/06/26 13:17:53;;;;;;;10.60;8.00;;;;;;;32.57;27.35;100709.00;10434327;28;20275;-74
2021/06/26 13:22:57;;;;;;;12.13;8.82;;;;;;;33.06;28.67;100706.13;10435232;28;20198;-74
2021/06/26 13:28:00;;;;;;;10.93;8.80;;;;;;;32.63;28.36;100706.00;10432673;28;20229;-73
2021/06/26 13:33:05;;;;;;;10.27;8.70;;;;;;;29.31;32.89;100700.50;10434166;28;20190;-74
2021/06/26 13:38:09;;;;;;;9.40;8.10;;;;;;;29.34;32.82;100691.72;10446648;28;20221;-73
2021/06/26 13:43:12;;;;;;;10.73;8.13;;;;;;;29.70;31.44;100684.22;10453126;28;20190;-73
2021/06/26 13:48:15;;;;;;;9.00;8.10;;;;;;;29.43;33.03;100684.75;10452968;28;20224;-74
2021/06/26 13:53:19;;;;;;;11.57;9.23;;;;;;;29.59;31.90;100678.47;10453749;28;20634;-73
2021/06/26 13:58:23;;;;;;;12.23;8.73;;;;;;;29.89;33.08;100671.88;10451647;28;20205;-74
2021/06/26 14:03:25;;;;;;;9.70;8.77;;;;;;;32.33;29.69;100666.78;10466036;28;20193;-73
2021/06/26 14:08:30;;;;;;;9.38;8.35;;;;;;;33.41;28.46;100663.78;10473812;28;20209;-73
2021/06/26 14:13:33;;;;;;;11.48;8.25;;;;;;;33.09;28.86;100669.41;10473724;28;20189;-73
2021/06/26 14:18:36;;;;;;;11.38;8.70;;;;;;;30.73;31.91;100670.44;10464727;28;20221;-73
2021/06/26 14:23:41;;;;;;;10.82;8.63;;;;;;;29.26;33.21;100678.25;10391316;28;20194;-73
2021/06/26 14:28:43;;;;;;;11.13;9.43;;;;;;;29.31;34.10;100672.84;10390396;28;20306;-73
2021/06/26 14:33:46;;;;;;;8.45;7.45;;;;;;;30.19;32.46;100668.91;10390862;28;20190;-73
2021/06/26 14:38:51;;;;;;;10.23;9.00;;;;;;;29.85;33.28;100664.34;10390389;28;20225;-73
2021/06/26 14:43:54;;;;;;;10.25;8.35;;;;;;;29.14;33.54;100665.28;10390782;28;20195;-73
2021/06/26 14:48:57;;;;;;;9.68;8.32;;;;;;;28.74;34.45;100658.72;10390950;28;20219;-73
2021/06/26 14:54:02;;;;;;;10.23;8.55;;;;;;;29.90;33.25;100659.75;10415230;28;20209;-73
2021/06/26 14:59:05;;;;;;;8.38;7.43;;;;;;;31.27;31.54;100649.41;10430835;28;20210;-74
2021/06/26 15:04:08;;;;;;;8.77;7.88;;;;;;;31.59;30.11;100651.47;10430922;28;20194;-74
2021/06/26 15:09:12;;;;;;;8.88;7.38;;;;;;;31.13;30.40;100643.34;10431494;28;20603;-73
2021/06/26 15:14:15;;;;;;;11.35;7.63;;;;;;;30.83;30.74;100642.88;10430756;28;20194;-73
2021/06/26 15:19:18;;;;;;;8.70;7.80;;;;;;;30.64;31.22;100645.03;10412954;28;20241;-74
2021/06/26 15:24:22;;;;;;;7.95;6.93;;;;;;;31.27;29.96;100634.69;10427778;28;20694;-73
2021/06/26 15:29:25;;;;;;;9.43;6.50;;;;;;;31.89;29.50;100623.25;10430501;28;20217;-75
2021/06/26 15:34:29;;;;;;;7.85;6.20;;;;;;;32.33;28.79;100620.38;10411564;28;20248;-75
2021/06/26 15:39:34;;;;;;;5.47;4.97;;;;;;;31.71;28.53;100612.50;10428954;28;20229;-75
2021/06/26 15:44:37;;;;;;;7.05;5.88;;;;;;;31.90;28.36;100605.50;10427794;28;20201;-75
2021/06/26 15:49:40;;;;;;;7.90;6.80;;;;;;;32.64;27.51;100599.25;10435060;28;20182;-75
2021/06/26 15:54:44;;;;;;;6.80;5.55;;;;;;;32.70;27.16;100591.81;10432998;28;20202;-75
2021/06/26 15:59:47;;;;;;;7.03;6.10;;;;;;;33.22;27.43;100604.94;10430866;28;20593;-75
2021/06/26 16:04:50;;;;;;;8.15;6.38;;;;;;;32.01;28.86;100598.94;10429139;28;20198;-75
2021/06/26 16:09:54;;;;;;;7.80;6.47;;;;;;;31.95;29.63;100586.13;10429145;28;20189;-74
2021/06/26 16:14:57;;;;;;;7.00;6.30;;;;;;;30.54;31.24;100583.91;10446786;28;20213;-75
2021/06/26 16:20:00;;;;;;;6.43;5.68;;;;;;;31.26;30.29;100569.19;10448333;28;20693;-74
2021/06/26 16:25:05;;;;;;;6.85;6.00;;;;;;;31.81;29.86;100564.56;10437473;28;20687;-74
2021/06/26 16:30:10;;;;;;;10.07;6.63;;;;;;;31.38;31.34;100569.91;10447478;28;20369;-74
2021/06/26 16:35:13;;;;;;;8.73;7.05;;;;;;;29.58;33.07;100570.75;10448639;28;20221;-74
2021/06/26 16:40:18;;;;;;;7.65;6.90;;;;;;;30.68;31.23;100554.75;10467953;28;20584;-74
2021/06/26 16:45:20;;;;;;;7.88;6.22;;;;;;;34.27;26.87;100559.31;10469073;28;20217;-74
2021/06/26 16:50:23;;;;;;;7.18;6.25;;;;;;;33.41;27.12;100555.22;10469389;28;20196;-74
2021/06/26 16:55:28;;;;;;;7.95;6.18;;;;;;;32.12;28.95;100557.38;10468867;28;20700;-74
2021/06/26 17:00:31;;;;;;;6.53;5.78;;;;;;;34.22;26.80;100542.56;10469477;28;20723;-74
2021/06/26 17:05:34;;;;;;;5.90;5.40;;;;;;;36.63;23.68;100550.69;10468904;28;20220;-74
2021/06/26 17:10:39;;;;;;;6.10;5.50;;;;;;;36.97;23.61;100542.22;10468926;28;20193;-74
2021/06/26 17:15:42;;;;;;;5.93;5.00;;;;;;;35.24;25.48;100547.97;10450840;28;20246;-74
2021/06/26 17:20:47;;;;;;;7.03;5.43;;;;;;;36.92;23.90;100542.28;10468783;28;20634;-74
2021/06/26 17:25:53;;;;;;;6.15;4.82;;;;;;;36.47;23.79;100543.56;10468267;28;20692;-74
2021/06/26 17:30:56;;;;;;;5.47;4.97;;;;;;;33.89;26.19;100547.53;10468592;28;20188;-74
2021/06/26 17:35:59;;;;;;;6.25;4.97;;;;;;;34.34;26.71;100543.16;10468522;28;20209;-74
2021/06/26 17:41:04;;;;;;;5.70;4.78;;;;;;;37.52;22.92;100530.63;10468483;28;20586;-74
2021/06/26 17:46:07;;;;;;;8.90;6.03;;;;;;;37.56;22.88;100540.06;10463081;28;20221;-74
2021/06/26 17:51:10;;;;;;;5.35;4.85;;;;;;;33.69;27.17;100540.00;10475583;28;20234;-74
2021/06/26 17:56:14;;;;;;;5.35;4.72;;;;;;;29.99;31.82;100549.41;10443951;28;20219;-74
2021/06/26 18:01:19;;;;;;;5.78;5.10;;;;;;;28.23;35.01;100547.78;10432505;28;20217;-74
2021/06/26 18:06:22;;;;;;;6.38;5.60;;;;;;;27.51;36.09;100558.78;10455023;28;20581;-74
2021/06/26 18:11:27;;;;;;;6.60;5.93;;;;;;;26.45;37.98;100563.50;10446863;28;20205;-73
2021/06/26 18:16:31;;;;;;;5.85;5.25;;;;;;;25.68;39.21;100563.59;10445639;28;20721;-73
2021/06/26 18:21:34;;;;;;;7.65;5.50;;;;;;;25.36;40.06;100574.47;10431414;28;20245;-73
2021/06/26 18:26:39;;;;;;;5.65;5.05;;;;;;;25.06;40.65;100571.41;10432376;28;20214;-73
2021/06/26 18:31:41;;;;;;;6.65;5.50;;;;;;;24.84;41.15;100575.44;10433235;28;20194;-73
2021/06/26 18:36:45;;;;;;;5.85;4.68;;;;;;;24.42;41.34;100578.44;10431967;28;20217;-73
2021/06/26 18:41:49;;;;;;;5.75;4.78;;;;;;;24.16;42.07;100587.47;10451249;28;20682;-73
2021/06/26 18:46:52;;;;;;;5.43;4.93;;;;;;;23.97;42.46;100594.63;10431821;28;20214;-73
2021/06/26 18:51:55;;;;;;;8.13;4.70;;;;;;;23.91;42.05;100598.19;10432208;28;20663;-74
2021/06/26 18:56:59;;;;;;;6.53;4.60;;;;;;;23.87;42.25;100597.75;10431314;28;20206;-73
2021/06/26 19:02:02;;;;;;;6.45;5.05;;;;;;;23.68;42.90;100606.75;10412822;28;20229;-73
2021/06/26 19:07:05;;;;;;;5.93;4.93;;;;;;;23.47;43.64;100604.97;10431282;28;20592;-73
2021/06/26 19:12:11;;;;;;;6.60;5.43;;;;;;;23.24;44.70;100613.50;10431244;28;20605;-73
2021/06/26 19:17:14;;;;;;;7.00;5.20;;;;;;;23.06;45.07;100613.97;10425859;28;20222;-73
2021/06/26 19:22:17;;;;;;;6.57;5.40;;;;;;;22.88;45.57;100622.72;10430719;28;20225;-74
2021/06/26 19:27:21;;;;;;;7.28;5.78;;;;;;;22.69;45.99;100612.47;10430249;28;20213;-74
2021/06/26 19:32:24;;;;;;;7.03;5.68;;;;;;;22.55;46.55;100622.47;10430525;28;20189;-74
2021/06/26 19:37:27;;;;;;;5.97;5.38;;;;;;;22.32;47.68;100628.09;10429902;28;20218;-73
2021/06/26 19:42:31;;;;;;;7.22;5.70;;;;;;;22.16;48.37;100639.31;10430335;28;20222;-74
2021/06/26 19:47:34;;;;;;;6.10;5.43;;;;;;;21.94;49.60;100642.03;10439032;28;20232;-73
2021/06/26 19:52:37;;;;;;;6.30;5.68;;;;;;;21.75;49.81;100651.69;10449514;28;20197;-73
2021/06/26 19:57:41;;;;;;;7.78;5.60;;;;;;;21.66;49.76;100652.78;10467394;28;20213;-73
2021/06/26 20:02:47;;;;;;;7.82;6.03;;;;;;;21.62;50.25;100654.22;10471568;28;20198;-73
2021/06/26 20:07:53;;;;;;;6.80;5.55;;;;;;;21.43;50.76;100648.31;10470771;28;20209;-73
2021/06/26 20:12:57;;;;;;;6.40;5.35;;;;;;;21.21;51.13;100649.25;10448195;28;20272;-73
2021/06/26 20:18:00;;;;;;;8.60;6.35;;;;;;;21.04;52.04;100653.22;10457548;28;20217;-73
2021/06/26 20:23:04;;;;;;;7.32;5.57;;;;;;;20.88;52.46;100652.28;10470714;28;20682;-74
2021/06/26 20:28:08;;;;;;;7.18;6.03;;;;;;;20.89;52.67;100651.25;10469810;28;20201;-74
2021/06/26 20:33:11;;;;;;;6.90;5.93;;;;;;;20.76;52.80;100657.34;10473164;28;20652;-73
2021/06/26 20:38:14;;;;;;;7.13;6.22;;;;;;;20.66;53.31;100656.75;10451804;28;20613;-74
2021/06/26 20:43:18;;;;;;;8.85;6.82;;;;;;;20.45;54.07;100662.06;10470557;28;20182;-74
2021/06/26 20:48:23;;;;;;;8.80;7.13;;;;;;;20.35;54.99;100654.13;10449314;22;20284;-75
2021/06/26 20:53:26;;;;;;;8.80;6.75;;;;;;;20.33;55.19;100657.03;10387458;28;20279;-76
2021/06/26 20:58:31;;;;;;;12.02;7.72;;;;;;;20.20;55.66;100661.34;10356777;28;20214;-76
2021/06/26 21:03:34;;;;;;;9.18;7.43;;;;;;;20.04;56.25;100675.94;10305234;28;20192;-76
2021/06/26 21:08:37;;;;;;;11.48;7.55;;;;;;;19.89;57.11;100678.59;10304419;28;20585;-76
2021/06/26 21:13:41;;;;;;;11.18;8.05;;;;;;;19.83;57.69;100669.25;10305349;28;20214;-76
2021/06/26 21:18:44;;;;;;;11.98;8.15;;;;;;;19.77;57.79;100667.19;10305075;28;20236;-76
2021/06/26 21:23:47;;;;;;;11.23;8.40;;;;;;;19.63;58.43;100660.63;10309514;28;20187;-76
2021/06/26 21:28:51;;;;;;;11.15;8.15;;;;;;;19.55;58.95;100649.72;10311136;28;20220;-76
2021/06/26 21:33:55;;;;;;;11.43;8.90;;;;;;;19.44;59.32;100650.13;10312045;28;20199;-76
2021/06/26 21:38:58;;;;;;;14.30;10.38;;;;;;;19.36;59.54;100644.69;10311827;28;20614;-76
2021/06/26 21:44:02;;;;;;;15.23;11.38;;;;;;;19.27;59.79;100648.50;10311698;28;20204;-76
2021/06/26 21:49:05;;;;;;;13.27;10.40;;;;;;;19.23;60.02;100651.56;10294210;28;20597;-76
2021/06/26 21:54:08;;;;;;;14.73;10.80;;;;;;;19.14;60.32;100649.03;10312054;28;20192;-76
2021/06/26 21:59:12;;;;;;;13.30;9.65;;;;;;;19.01;60.82;100650.44;10312740;28;20228;-76
2021/06/26 22:04:15;;;;;;;16.48;12.15;;;;;;;18.97;61.31;100645.50;10312983;28;20566;-76
2021/06/26 22:09:18;;;;;;;16.33;11.90;;;;;;;18.94;61.19;100648.56;10311677;28;20215;-76
2021/06/26 22:14:23;;;;;;;17.63;11.43;;;;;;;18.89;61.54;100656.41;10309212;28;20609;-76
2021/06/26 22:19:25;;;;;;;16.27;12.27;;;;;;;18.95;61.39;100653.84;10310906;28;20223;-76
2021/06/26 22:24:28;;;;;;;17.17;11.88;;;;;;;18.94;61.04;100660.31;10312553;28;20195;-78
2021/06/26 22:29:33;;;;;;;18.40;12.55;;;;;;;18.75;61.75;100656.03;10316489;28;20532;-78
2021/06/26 22:40:57;;;;;;;17.45;13.05;;;;;;;18.32;63.05;100673.53;10316321;28;20250;-78
2021/06/26 22:46:01;;;;;;;15.48;11.77;;;;;;;18.22;63.33;100676.41;10315570;28;20227;-78
2021/06/26 22:51:05;;;;;;;16.50;11.35;;;;;;;17.64;65.58;100680.81;10315548;28;20194;-78
2021/06/26 22:56:08;;;;;;;15.90;11.48;;;;;;;17.32;66.62;100684.22;10342293;28;20315;-77
2021/06/26 23:01:12;;;;;;;14.77;11.77;;;;;;;17.37;66.77;100683.75;10323687;28;20227;-77
2021/06/26 23:06:15;;;;;;;15.73;11.10;;;;;;;17.58;65.83;100683.31;10307926;28;20278;-77
2021/06/26 23:11:18;;;;;;;16.23;11.52;;;;;;;17.59;65.50;100683.16;10324499;28;20204;-77